createdAt,value
2022-10-29T00:00:55.378Z,12.78
2022-10-29T00:03:57.219Z,12.59
2022-10-29T00:06:59.065Z,12.69
2022-10-29T00:10:00.830Z,12.71
2022-10-29T00:13:03.459Z,12.70
2022-10-29T00:17:15.948Z,12.66
2022-10-29T00:20:20.961Z,12.66
2022-10-29T00:23:22.652Z,12.68
2022-10-29T00:26:25.408Z,12.61
2022-10-29T00:29:27.132Z,12.53
2022-10-29T00:32:28.896Z,12.53
2022-10-29T00:35:30.618Z,12.39
2022-10-29T00:38:33.221Z,12.37
2022-10-29T00:41:34.926Z,12.50
2022-10-29T00:44:38.966Z,12.58
2022-10-29T00:47:40.746Z,12.63
2022-10-29T00:50:43.452Z,12.54
2022-10-29T00:54:06.856Z,12.58
2022-10-29T00:57:13.906Z,12.56
2022-10-29T01:00:17.099Z,12.54
2022-10-29T01:03:18.828Z,12.48
2022-10-29T01:06:20.916Z,12.44
2022-10-29T01:09:22.599Z,12.48
2022-10-29T01:12:59.303Z,12.38
2022-10-29T01:16:19.803Z,12.39
2022-10-29T01:20:15.958Z,12.35
2022-10-29T01:23:55.090Z,12.21
2022-10-29T01:27:17.046Z,11.98
2022-10-29T01:30:37.417Z,11.95
2022-10-29T01:33:44.822Z,11.90
2022-10-29T01:37:05.402Z,11.90
2022-10-29T01:40:26.930Z,12.07
2022-10-29T01:43:34.840Z,12.20
2022-10-29T01:47:03.383Z,12.09
2022-10-29T01:50:08.360Z,11.85
2022-10-29T01:53:10.456Z,11.83
2022-10-29T01:56:12.137Z,12.07
2022-10-29T01:59:23.061Z,12.01
2022-10-29T02:02:35.577Z,12.08
2022-10-29T02:05:46.294Z,12.18
2022-10-29T02:08:47.919Z,12.26
2022-10-29T02:12:24.886Z,12.31
2022-10-29T02:15:37.513Z,12.33
2022-10-29T02:18:46.375Z,12.40
2022-10-29T02:21:50.769Z,12.39
2022-10-29T02:24:52.466Z,12.28
2022-10-29T02:27:54.294Z,12.20
2022-10-29T02:30:56.229Z,12.28
2022-10-29T02:33:57.971Z,12.29
2022-10-29T02:36:59.617Z,12.34
2022-10-29T02:40:01.273Z,12.24
2022-10-29T02:43:02.999Z,12.23
2022-10-29T02:46:18.809Z,12.27
2022-10-29T02:49:20.528Z,12.18
2022-10-29T02:52:22.157Z,12.19
2022-10-29T02:55:23.849Z,12.27
2022-10-29T02:58:25.505Z,12.16
2022-10-29T03:01:27.394Z,12.04
2022-10-29T03:04:29.249Z,12.26
2022-10-29T03:07:35.321Z,12.27
2022-10-29T03:10:37.126Z,12.30
2022-10-29T03:13:39.283Z,12.19
2022-10-29T03:16:40.987Z,11.94
2022-10-29T03:19:42.634Z,11.87
2022-10-29T03:22:44.510Z,11.85
2022-10-29T03:25:55.559Z,11.94
2022-10-29T03:28:57.971Z,12.02
2022-10-29T03:31:59.652Z,11.91
2022-10-29T03:35:01.352Z,11.72
2022-10-29T03:38:03.100Z,11.64
2022-10-29T03:41:10.319Z,11.63
2022-10-29T03:44:12.112Z,11.81
2022-10-29T03:47:13.855Z,11.93
2022-10-29T03:50:15.888Z,11.86
2022-10-29T03:53:17.667Z,11.76
2022-10-29T03:56:19.387Z,11.76
2022-10-29T03:59:21.138Z,11.89
2022-10-29T04:02:23.597Z,11.90
2022-10-29T04:05:25.394Z,11.90
2022-10-29T04:08:27.832Z,11.96
2022-10-29T04:11:29.584Z,11.94
2022-10-29T04:14:31.350Z,11.86
2022-10-29T04:17:33.107Z,11.97
2022-10-29T04:21:26.591Z,11.85
2022-10-29T04:30:40.675Z,11.83
2022-10-29T04:33:42.303Z,11.87
2022-10-29T04:36:43.999Z,11.65
2022-10-29T04:39:45.699Z,11.76
2022-10-29T04:42:47.385Z,11.57
2022-10-29T04:45:53.356Z,11.81
2022-10-29T04:48:55.166Z,11.77
2022-10-29T04:51:56.948Z,11.74
2022-10-29T04:54:58.575Z,11.80
2022-10-29T04:58:00.268Z,11.80
2022-10-29T05:01:03.047Z,11.85
2022-10-29T05:04:05.107Z,11.75
2022-10-29T05:07:06.969Z,11.65
2022-10-29T05:10:08.964Z,11.84
2022-10-29T05:13:12.136Z,11.91
2022-10-29T05:16:13.950Z,11.89
2022-10-29T05:19:15.760Z,11.82
2022-10-29T05:22:17.564Z,11.82
2022-10-29T05:25:19.342Z,11.98
2022-10-29T05:28:22.641Z,11.97
2022-10-29T05:31:24.543Z,11.78
2022-10-29T05:34:26.616Z,11.66
2022-10-29T05:37:28.457Z,11.53
2022-10-29T05:40:30.702Z,11.64
2022-10-29T05:43:32.605Z,11.57
2022-10-29T05:46:34.613Z,11.40
2022-10-29T05:49:36.554Z,11.21
2022-10-29T05:52:38.970Z,11.23
2022-10-29T05:55:41.671Z,11.22
2022-10-29T05:58:43.526Z,11.14
2022-10-29T06:01:45.610Z,11.08
2022-10-29T06:04:47.750Z,11.13
2022-10-29T06:08:00.653Z,11.27
2022-10-29T06:11:03.785Z,11.34
2022-10-29T06:14:05.800Z,11.25
2022-10-29T06:17:07.866Z,11.10
2022-10-29T06:20:10.779Z,11.15
2022-10-29T06:23:12.648Z,11.20
2022-10-29T06:26:14.471Z,11.29
2022-10-29T06:29:16.308Z,11.35
2022-10-29T06:32:18.225Z,11.40
2022-10-29T06:35:20.236Z,11.45
2022-10-29T06:38:22.243Z,11.25
2022-10-29T06:41:27.301Z,11.24
2022-10-29T06:44:29.216Z,11.11
2022-10-29T06:47:31.628Z,11.15
2022-10-29T06:50:33.945Z,11.46
2022-10-29T06:53:35.850Z,11.56
2022-10-29T06:56:37.823Z,11.53
2022-10-29T06:59:39.646Z,11.55
2022-10-29T07:02:41.493Z,11.43
2022-10-29T07:05:43.662Z,11.56
2022-10-29T07:08:45.558Z,11.53
2022-10-29T07:11:48.095Z,11.70
2022-10-29T07:14:49.912Z,11.69
2022-10-29T07:18:06.723Z,11.82
2022-10-29T07:21:09.866Z,11.85
2022-10-29T07:24:11.692Z,11.88
2022-10-29T07:27:13.538Z,11.92
2022-10-29T07:30:16.101Z,11.77
2022-10-29T07:33:18.160Z,11.85
2022-10-29T07:36:20.088Z,11.98
2022-10-29T07:39:22.807Z,11.94
2022-10-29T07:42:25.121Z,11.97
2022-10-29T07:45:27.604Z,11.83
2022-10-29T07:48:30.359Z,11.87
2022-10-29T07:51:32.469Z,11.77
2022-10-29T07:54:34.383Z,11.57
2022-10-29T07:57:36.544Z,11.52
2022-10-29T08:00:40.657Z,11.62
2022-10-29T08:03:42.618Z,11.69
2022-10-29T08:06:44.677Z,11.54
2022-10-29T08:09:46.661Z,11.75
2022-10-29T08:12:52.714Z,11.62
2022-10-29T08:15:55.373Z,11.50
2022-10-29T08:18:57.384Z,11.48
2022-10-29T08:21:59.395Z,11.50
2022-10-29T08:25:01.236Z,11.48
2022-10-29T08:28:04.952Z,11.84
2022-10-29T08:31:07.155Z,11.81
2022-10-29T08:34:11.197Z,11.85
2022-10-29T08:37:13.337Z,12.12
2022-10-29T08:40:27.679Z,12.35
2022-10-29T08:43:35.691Z,12.23
2022-10-29T08:46:42.675Z,12.37
2022-10-29T08:50:10.127Z,12.23
2022-10-29T08:53:23.239Z,12.37
2022-10-29T08:56:30.055Z,12.67
2022-10-29T08:59:37.566Z,12.85
2022-10-29T09:02:40.456Z,13.18
2022-10-29T09:06:11.648Z,13.37
2022-10-29T09:09:16.533Z,13.35
2022-10-29T09:13:00.360Z,13.60
2022-10-29T09:16:27.099Z,13.48
2022-10-29T09:19:33.720Z,13.56
2022-10-29T09:22:47.890Z,13.57
2022-10-29T09:25:56.765Z,13.47
2022-10-29T09:29:34.217Z,13.37
2022-10-29T09:32:43.588Z,13.18
2022-10-29T09:35:48.251Z,13.21
2022-10-29T09:39:03.253Z,12.98
2022-10-29T09:42:13.325Z,12.87
2022-10-29T09:45:17.945Z,13.00
2022-10-29T09:48:25.830Z,13.08
2022-10-29T09:51:50.671Z,13.18
2022-10-29T09:54:54.005Z,13.24
2022-10-29T09:57:57.747Z,13.27
2022-10-29T10:00:59.773Z,13.43
2022-10-29T10:04:11.764Z,13.22
2022-10-29T10:07:21.433Z,13.31
2022-10-29T10:10:24.508Z,13.30
2022-10-29T10:13:32.017Z,13.51
2022-10-29T10:16:34.341Z,13.55
2022-10-29T10:19:43.177Z,13.45
2022-10-29T10:22:48.371Z,13.45
2022-10-29T10:25:52.100Z,13.40
2022-10-29T10:29:14.699Z,13.44
2022-10-29T10:32:17.785Z,13.42
2022-10-29T10:35:28.544Z,13.52
2022-10-29T10:38:41.117Z,13.55
2022-10-29T10:41:43.403Z,13.58
2022-10-29T10:45:14.608Z,13.44
2022-10-29T10:48:18.241Z,13.42
2022-10-29T10:51:25.852Z,13.28
2022-10-29T10:54:42.411Z,12.96
2022-10-29T10:57:51.234Z,13.15
2022-10-29T11:00:59.888Z,13.37
2022-10-29T11:04:14.097Z,13.09
2022-10-29T11:07:17.931Z,13.30
2022-10-29T11:10:21.457Z,13.29
2022-10-29T11:13:25.756Z,13.25
2022-10-29T11:16:46.412Z,12.97
2022-10-29T11:19:52.311Z,13.18
2022-10-29T11:23:12.835Z,13.12
2022-10-29T11:26:22.599Z,13.15
2022-10-29T11:29:37.012Z,13.52
2022-10-29T11:33:03.769Z,13.46
2022-10-29T11:36:20.595Z,13.60
2022-10-29T11:39:32.518Z,13.71
2022-10-29T11:42:36.816Z,13.55
2022-10-29T11:45:54.701Z,13.31
2022-10-29T11:49:06.787Z,13.21
2022-10-29T11:52:11.871Z,13.22
2022-10-29T11:55:20.452Z,13.19
2022-10-29T11:58:34.285Z,13.30
2022-10-29T12:02:00.301Z,13.34
2022-10-29T12:05:37.659Z,13.33
2022-10-29T12:08:43.034Z,13.58
2022-10-29T12:11:51.462Z,13.76
2022-10-29T12:15:30.586Z,13.82
2022-10-29T12:18:45.279Z,13.93
2022-10-29T12:21:55.528Z,13.99
2022-10-29T12:25:15.413Z,14.01
2022-10-29T12:28:39.165Z,14.03
2022-10-29T12:31:56.119Z,14.07
2022-10-29T12:35:18.658Z,13.98
2022-10-29T12:38:43.205Z,13.68
2022-10-29T12:41:48.881Z,13.67
2022-10-29T12:45:07.178Z,13.88
2022-10-29T12:48:15.225Z,13.98
2022-10-29T12:51:28.300Z,13.96
2022-10-29T12:54:39.353Z,13.97
2022-10-29T12:57:41.444Z,13.88
2022-10-29T13:00:48.204Z,14.01
2022-10-29T13:03:56.586Z,13.87
2022-10-29T13:07:05.713Z,14.00
2022-10-29T13:10:28.701Z,14.06
2022-10-29T13:13:39.055Z,13.92
2022-10-29T13:16:41.246Z,13.99
2022-10-29T13:20:01.459Z,13.69
2022-10-29T13:23:11.204Z,13.56
2022-10-29T13:26:13.387Z,13.18
2022-10-29T13:29:42.325Z,13.13
2022-10-29T13:32:44.659Z,13.42
2022-10-29T13:35:52.646Z,13.51
2022-10-29T13:39:05.645Z,13.38
2022-10-29T13:42:11.985Z,13.21
2022-10-29T13:45:14.267Z,13.28
2022-10-29T13:48:35.605Z,13.10
2022-10-29T13:51:43.320Z,13.07
2022-10-29T13:55:01.782Z,13.05
2022-10-29T13:58:03.825Z,13.24
2022-10-29T14:01:09.840Z,13.15
2022-10-29T14:04:22.568Z,13.15
2022-10-29T14:07:31.369Z,13.24
2022-10-29T14:10:45.480Z,13.18
2022-10-29T14:13:49.528Z,13.25
2022-10-29T14:17:13.129Z,13.18
2022-10-29T14:20:27.307Z,13.20
2022-10-29T14:23:30.980Z,13.12
2022-10-29T14:26:35.430Z,13.04
2022-10-29T14:29:38.617Z,13.22
2022-10-29T14:32:41.848Z,13.13
2022-10-29T14:35:45.599Z,13.06
2022-10-29T14:39:04.424Z,13.08
2022-10-29T14:42:40.226Z,12.99
2022-10-29T14:45:42.869Z,13.02
2022-10-29T14:49:22.174Z,13.09
2022-10-29T14:52:55.260Z,13.00
2022-10-29T14:56:02.567Z,13.05
2022-10-29T14:59:13.715Z,13.10
2022-10-29T15:05:40.822Z,13.13
2022-10-29T15:08:44.633Z,13.19
2022-10-29T15:12:03.282Z,13.12
2022-10-29T15:15:25.929Z,13.09
2022-10-29T15:18:28.260Z,12.99
2022-10-29T15:21:32.579Z,12.91
2022-10-29T15:24:34.963Z,13.04
2022-10-29T15:27:38.398Z,13.00
2022-10-29T15:30:40.432Z,12.97
2022-10-29T15:33:42.684Z,12.89
2022-10-29T15:36:49.805Z,12.99
2022-10-29T15:40:10.477Z,12.98
2022-10-29T15:43:29.905Z,12.88
2022-10-29T15:46:36.401Z,12.96
2022-10-29T15:49:38.401Z,13.01
2022-10-29T15:53:07.971Z,12.99
2022-10-29T15:56:13.946Z,12.95
2022-10-29T15:59:19.042Z,12.97
2022-10-29T16:02:21.221Z,12.85
2022-10-29T16:05:23.266Z,12.87
2022-10-29T16:08:28.506Z,12.87
2022-10-29T16:11:30.590Z,12.87
2022-10-29T16:14:32.486Z,12.97
2022-10-29T16:17:34.573Z,12.98
2022-10-29T16:20:37.177Z,12.96
2022-10-29T16:23:39.389Z,13.05
2022-10-29T16:26:41.761Z,13.09
2022-10-29T16:29:44.224Z,12.98
2022-10-29T16:32:46.581Z,12.96
2022-10-29T16:35:48.790Z,13.01
2022-10-29T16:38:50.860Z,12.99
2022-10-29T16:41:52.737Z,13.01
2022-10-29T16:44:54.700Z,13.07
2022-10-29T16:47:57.785Z,13.04
2022-10-29T16:51:00.282Z,13.07
2022-10-29T16:54:02.285Z,13.13
2022-10-29T16:57:04.211Z,13.16
2022-10-29T17:00:07.311Z,13.17
2022-10-29T17:03:12.007Z,13.15
2022-10-29T17:06:14.872Z,13.14
2022-10-29T17:09:18.144Z,13.19
2022-10-29T17:12:22.729Z,13.09
2022-10-29T17:15:24.759Z,13.09
2022-10-29T17:18:26.728Z,13.19
2022-10-29T17:21:33.714Z,13.18
2022-10-29T17:24:35.610Z,13.12
2022-10-29T17:27:41.832Z,12.94
2022-10-29T17:30:43.781Z,12.82
2022-10-29T17:33:45.910Z,12.78
2022-10-29T17:36:49.811Z,12.92
2022-10-29T17:39:51.845Z,13.04
2022-10-29T17:42:54.185Z,12.97
2022-10-29T17:46:00.491Z,12.99
2022-10-29T17:49:03.032Z,13.04
2022-10-29T17:52:05.473Z,13.09
2022-10-29T17:55:08.845Z,13.17
2022-10-29T17:58:15.459Z,13.19
2022-10-29T18:01:22.632Z,13.22
2022-10-29T18:04:24.638Z,13.13
2022-10-29T18:07:26.625Z,13.12
2022-10-29T18:10:29.163Z,13.15
2022-10-29T18:13:33.136Z,13.16
2022-10-29T18:16:35.361Z,13.17
2022-10-29T18:19:37.406Z,13.17
2022-10-29T18:22:39.402Z,13.14
2022-10-29T18:25:41.284Z,13.13
2022-10-29T18:28:43.675Z,13.10
2022-10-29T18:31:47.267Z,13.11
2022-10-29T18:34:49.499Z,13.11
2022-10-29T18:37:52.843Z,13.15
2022-10-29T18:40:56.271Z,12.94
2022-10-29T18:43:59.467Z,13.03
2022-10-29T18:47:01.691Z,13.07
2022-10-29T18:50:03.870Z,13.06
2022-10-29T18:53:05.886Z,13.06
2022-10-29T18:56:13.309Z,13.06
2022-10-29T18:59:15.515Z,13.14
2022-10-29T19:02:17.572Z,13.15
2022-10-29T19:05:20.054Z,13.06
2022-10-29T19:08:22.416Z,13.05
2022-10-29T19:11:26.047Z,13.06
2022-10-29T19:14:28.411Z,13.10
2022-10-29T19:17:30.675Z,13.02
2022-10-29T19:20:35.722Z,13.02
2022-10-29T19:23:38.223Z,13.10
2022-10-29T19:26:40.756Z,13.02
2022-10-29T19:29:42.661Z,13.07
2022-10-29T19:32:44.941Z,13.03
2022-10-29T19:35:46.821Z,13.00
2022-10-29T19:38:49.204Z,13.00
2022-10-29T19:41:51.693Z,13.00
2022-10-29T19:44:56.397Z,13.12
2022-10-29T19:47:59.262Z,13.06
2022-10-29T19:51:02.937Z,13.11
2022-10-29T19:54:07.662Z,13.12
2022-10-29T19:57:10.275Z,13.07
2022-10-29T20:00:16.696Z,13.07
2022-10-29T20:03:19.773Z,13.03
2022-10-29T20:06:22.011Z,13.04
2022-10-29T20:09:24.310Z,13.05
2022-10-29T20:12:26.388Z,13.07
2022-10-29T20:15:28.319Z,13.04
2022-10-29T20:18:30.458Z,13.05
2022-10-29T20:21:32.493Z,13.07
2022-10-29T20:24:34.890Z,13.10
2022-10-29T20:27:36.890Z,13.04
2022-10-29T20:30:39.476Z,13.00
2022-10-29T20:33:42.300Z,13.02
2022-10-29T20:36:46.767Z,13.00
2022-10-29T20:39:49.197Z,13.04
2022-10-29T20:42:51.358Z,13.05
2022-10-29T20:45:53.493Z,13.03
2022-10-29T20:48:55.773Z,13.03
2022-10-29T20:51:58.024Z,13.02
2022-10-29T20:54:59.909Z,12.98
2022-10-29T20:58:02.226Z,12.97
2022-10-29T21:01:08.216Z,12.93
2022-10-29T21:04:10.215Z,12.95
2022-10-29T21:07:12.320Z,12.93
2022-10-29T21:10:14.559Z,12.89
2022-10-29T21:13:16.783Z,12.85
2022-10-29T21:16:22.404Z,12.84
2022-10-29T21:19:26.081Z,12.78
2022-10-29T21:22:27.894Z,12.77
2022-10-29T21:25:29.810Z,12.71
2022-10-29T21:28:32.287Z,12.78
2022-10-29T21:31:34.281Z,12.78
2022-10-29T21:34:36.797Z,12.73
2022-10-29T21:37:39.340Z,12.64
2022-10-29T21:40:42.263Z,12.66
2022-10-29T21:43:44.425Z,12.65
2022-10-29T21:46:46.550Z,12.64
2022-10-29T21:49:51.982Z,12.67
2022-10-29T21:52:56.954Z,12.70
2022-10-29T21:56:01.134Z,12.65
2022-10-29T21:59:03.207Z,12.66
2022-10-29T22:02:05.284Z,12.66
2022-10-29T22:05:07.567Z,12.65
2022-10-29T22:08:09.607Z,12.66
2022-10-29T22:11:12.396Z,12.63
2022-10-29T22:14:14.348Z,12.66
2022-10-29T22:17:16.350Z,12.66
2022-10-29T22:20:18.332Z,12.64
2022-10-29T22:23:20.400Z,12.66
2022-10-29T22:26:27.378Z,12.70
2022-10-29T22:29:29.073Z,12.62
2022-10-29T22:32:31.132Z,12.67
2022-10-29T22:35:33.162Z,12.65
2022-10-29T22:38:35.282Z,12.66
2022-10-29T22:41:37.170Z,12.67
2022-10-29T22:44:39.021Z,12.62
2022-10-29T22:47:40.852Z,12.59
2022-10-29T22:50:42.720Z,12.65
2022-10-29T22:53:45.835Z,12.78
2022-10-29T22:56:47.696Z,12.75
2022-10-29T22:59:49.493Z,12.72
2022-10-29T23:02:51.347Z,12.67
2022-10-29T23:05:58.135Z,12.72
2022-10-29T23:09:01.797Z,12.77
2022-10-29T23:12:03.812Z,12.74
2022-10-29T23:15:06.116Z,12.80
2022-10-29T23:18:07.927Z,12.78
2022-10-29T23:21:09.972Z,12.69
2022-10-29T23:24:11.838Z,12.54
2022-10-29T23:27:13.708Z,12.36
2022-10-29T23:30:15.489Z,12.43
2022-10-29T23:33:17.247Z,12.36
2022-10-29T23:36:20.403Z,12.35
2022-10-29T23:39:22.210Z,12.48
2022-10-29T23:42:24.132Z,12.48
2022-10-29T23:45:25.870Z,12.47
2022-10-29T23:48:27.858Z,12.45
2022-10-29T23:51:29.649Z,12.38
2022-10-29T23:54:31.375Z,12.35
2022-10-29T23:57:33.298Z,12.12
